Hauptseite
METAR-TAF:

METAR-TAF

Flughäfen :

Laupheim, Deutschland

Flugplatz Laupheim

Breite: 48-13N, Länge: 009-55E, Höhe: 538 m

Beobachtung

Neuester Wetterbericht von vor 1 Stunde und 26 Minuten, um 13:20 UTC
Wind 4 kt aus West/Nordwest
Temperatur 14°C
Luftfeuchtigkeit 55%
Luftdruck 1021 hPa
Sichtweite 10 km oder mehr
Leicht bewölkt in der Höhe von 4000 ft
Aufgelockert bewölkt in der Höhe von 13000 ft

METAR: ETHL 201320Z 29004KT 9999 FEW040 SCT130 14/05 Q1021 BLU+BLU+

Zeit: 16:46 (14:46 UTC)

Prognose

Neuester Wetterbericht von vor 4 Stunden und 31 Minuten, um 10:15 UTC
Gültige Prognose vom 20 um 11 UTC bis 20 um 20 UTC
Wind 8 kt aus West
Sichtweite 10 km oder mehr
Leicht bewölkt in der Höhe von 3000 ft
Durchbrochene Bewölkung in der Höhe von 6000 ft

TAF: ETHL 201015Z 2011/2020 26008KT 9999 NSW FEW030 BKN060

Wetterbeobachtungen und Prognosen von mehr als 4000 Flughäfen (METAR und TAF Bericht).

Die verfügbaren Stationen werden durch gelbe und rote Markierungen auf der Karte dargestellt.

Führen Sie die Maus auf sie, um den Namen der Station zu sehen.

Darauf klicken, um die Beobachtung von Wetterbeobachtungen und Prognosen zu sehen.

Um die Karte zu ändern : klicken Sie auf den grünen Tasten mit einem schwarzen Kreuz Zum Vergrößern, auf den grünen Button mit einem Gedankenstrich zu verkleinern, oder auf die grünen Pfeile für benachbarte Karten.


METAR-TAF: